Time;durP1;ratioP1;P1;durP2;ratioP2;P2;SDS_P1;SDS_P2;PMS_P1;PMS_P2;Temp;Humidity;BMP_temperature;BMP_pressure;BME280_temperature;BME280_humidity;BME280_pressure;Samples;Min_cycle;Max_cycle;Signal;HPM_P1;HPM_P2
2022/04/18 00:01:21;;;;;;;23.00;19.07;;;11.50;50.60;;;;;;4948159;29;20720;-80
2022/04/18 00:03:49;;;;;;;23.60;19.80;;;11.60;50.90;;;;;;4950824;29;20220;-80
2022/04/18 00:06:16;;;;;;;22.67;19.98;;;11.60;51.00;;;;;;4962213;28;20214;-80
2022/04/18 00:08:45;;;;;;;21.92;19.52;;;11.40;50.60;;;;;;4962756;28;20198;-80
2022/04/18 00:11:14;;;;;;;22.03;19.37;;;11.20;52.80;;;;;;4948958;29;20203;-80
2022/04/18 00:13:41;;;;;;;25.38;20.60;;;11.20;53.00;;;;;;4962748;28;20221;-80
2022/04/18 00:16:08;;;;;;;23.73;19.97;;;11.10;53.30;;;;;;4958417;28;20233;-80
2022/04/18 00:18:36;;;;;;;24.92;20.30;;;11.20;53.00;;;;;;4961618;28;20202;-80
2022/04/18 00:21:04;;;;;;;20.40;18.17;;;11.10;53.30;;;;;;4970458;28;20198;-80
2022/04/18 00:23:31;;;;;;;22.55;19.95;;;11.10;53.30;;;;;;4967583;28;20222;-80
2022/04/18 00:25:58;;;;;;;21.92;19.50;;;11.00;54.20;;;;;;4956324;28;20620;-82
2022/04/18 00:28:27;;;;;;;21.73;19.38;;;10.80;55.20;;;;;;4941224;29;20210;-80
2022/04/18 00:30:55;;;;;;;24.20;19.80;;;10.60;56.30;;;;;;4954819;28;20194;-80
2022/04/18 00:33:22;;;;;;;22.30;19.30;;;10.60;56.60;;;;;;4956532;28;20226;-80
2022/04/18 00:35:51;;;;;;;22.27;18.87;;;10.60;56.80;;;;;;4959158;28;20226;-80
2022/04/18 00:38:19;;;;;;;21.87;19.57;;;10.60;56.40;;;;;;4960939;28;20572;-80
2022/04/18 00:40:46;;;;;;;23.52;20.08;;;10.60;56.00;;;;;;4958117;28;20210;-80
2022/04/18 00:43:14;;;;;;;23.20;19.47;;;10.70;54.10;;;;;;4955211;28;20249;-80
2022/04/18 00:45:43;;;;;;;22.90;19.77;;;10.80;53.60;;;;;;4955494;28;20206;-80
2022/04/18 00:48:10;;;;;;;23.00;19.83;;;11.00;52.30;;;;;;4956373;28;20206;-80
2022/04/18 00:50:40;;;;;;;22.37;19.60;;;11.10;51.90;;;;;;4942882;29;20210;-80
2022/04/18 00:53:08;;;;;;;22.73;19.80;;;11.00;52.60;;;;;;4947812;28;20222;-80
2022/04/18 00:55:36;;;;;;;22.67;19.77;;;11.10;52.60;;;;;;4959032;28;20218;-80
2022/04/18 00:58:05;;;;;;;23.58;20.70;;;11.10;52.60;;;;;;4957396;28;20206;-80
2022/04/18 01:00:32;;;;;;;25.23;20.60;;;11.00;51.50;;;;;;4956079;28;20206;-80
2022/04/18 01:03:01;;;;;;;24.07;20.17;;;11.00;51.50;;;;;;4960178;28;20234;-80
2022/04/18 01:05:29;;;;;;;23.85;19.55;;;11.20;50.80;;;;;;4959185;28;20201;-80
2022/04/18 01:07:56;;;;;;;21.52;18.58;;;11.20;51.40;;;;;;4957714;28;20199;-80
2022/04/18 01:10:27;;;;;;;20.80;18.35;;;11.20;50.60;;;;;;4959706;28;20202;-80
2022/04/18 01:12:54;;;;;;;21.92;19.60;;;11.30;51.70;;;;;;4956994;28;20234;-80
2022/04/18 01:15:34;;;;;;;22.57;20.10;;;11.30;50.80;;;;;;4944086;29;20589;-80
2022/04/18 01:18:31;;;;;;;22.63;20.23;;;11.00;53.30;;;;;;4955663;28;20202;-80
2022/04/18 01:21:27;;;;;;;24.58;19.58;;;10.70;54.30;;;;;;4957553;28;20206;-80
2022/04/18 01:29:58;;;;;;;23.00;19.97;;;10.80;54.10;;;;;;4958217;28;20201;-80
2022/04/18 01:32:26;;;;;;;25.07;20.33;;;10.50;54.80;;;;;;4956149;28;20202;-80
2022/04/18 01:34:57;;;;;;;24.40;20.17;;;10.50;55.20;;;;;;4958058;28;20199;-80
2022/04/18 01:37:26;;;;;;;24.87;20.87;;;10.20;56.20;;;;;;4940435;29;20202;-80
2022/04/18 01:39:54;;;;;;;24.23;20.20;;;9.90;58.30;;;;;;4954914;28;20210;-80
2022/04/18 01:42:22;;;;;;;24.80;20.83;;;9.80;60.60;;;;;;4955318;28;20214;-80
2022/04/18 01:44:51;;;;;;;22.60;20.20;;;9.60;62.30;;;;;;4946191;29;20193;-80
2022/04/18 01:47:19;;;;;;;20.63;18.50;;;9.50;62.50;;;;;;4942500;29;20202;-79
2022/04/18 01:49:47;;;;;;;21.40;17.67;;;9.30;63.70;;;;;;4941717;29;20568;-80
2022/04/18 01:52:15;;;;;;;22.77;17.63;;;9.20;68.90;;;;;;4945743;29;20202;-81
2022/04/18 01:54:45;;;;;;;21.00;18.20;;;9.30;71.30;;;;;;4956227;28;20198;-81
2022/04/18 01:57:16;;;;;;;22.53;18.47;;;9.20;73.70;;;;;;4956649;28;20199;-80
2022/04/18 01:59:44;;;;;;;23.77;18.23;;;9.30;75.40;;;;;;4954741;28;20206;-80
2022/04/18 02:02:13;;;;;;;20.20;17.73;;;9.30;77.10;;;;;;4962821;28;20210;-80
2022/04/18 02:04:40;;;;;;;22.70;19.07;;;9.30;77.30;;;;;;4957247;28;20194;-80
2022/04/18 02:07:12;;;;;;;24.00;19.67;;;9.30;75.90;;;;;;4955665;28;20194;-80
2022/04/18 02:09:46;;;;;;;27.50;22.30;;;9.20;77.30;;;;;;4934657;29;20203;-80
2022/04/18 02:12:15;;;;;;;24.00;19.63;;;9.40;74.50;;;;;;4963519;28;20624;-82
2022/04/18 02:14:52;;;;;;;21.53;19.23;;;9.20;77.60;;;;;;4955063;28;20214;-82
2022/04/18 02:17:22;;;;;;;24.67;19.97;;;8.90;81.50;;;;;;4936020;29;20227;-82
2022/04/18 02:19:50;;;;;;;27.30;22.53;;;8.80;82.00;;;;;;4956967;28;20198;-82
2022/04/18 02:22:17;;;;;;;24.73;22.13;;;8.80;82.20;;;;;;4952694;28;20206;-82
2022/04/18 02:24:46;;;;;;;24.13;20.50;;;8.80;80.60;;;;;;4955005;28;20205;-82
2022/04/18 02:27:14;;;;;;;21.33;17.57;;;8.70;82.00;;;;;;4938921;29;20210;-82
2022/04/18 02:29:41;;;;;;;21.47;18.43;;;8.80;82.60;;;;;;4954983;28;20198;-83
2022/04/18 02:34:55;;;;;;;20.67;18.07;;;8.70;88.00;;;;;;4953824;28;20194;-82
2022/04/18 02:37:22;;;;;;;18.87;16.60;;;8.70;88.80;;;;;;4960092;28;20760;-82
2022/04/18 02:39:54;;;;;;;23.23;17.90;;;8.60;90.40;;;;;;4955618;28;20198;-82
2022/04/18 02:42:21;;;;;;;19.97;17.63;;;8.60;90.80;;;;;;4953607;28;20571;-82
2022/04/18 02:44:50;;;;;;;22.90;19.03;;;8.60;91.50;;;;;;4939292;29;20202;-82
2022/04/18 02:47:25;;;;;;;26.67;20.40;;;8.50;91.40;;;;;;4953925;28;20206;-82
2022/04/18 02:49:54;;;;;;;25.80;21.27;;;8.60;91.30;;;;;;4942061;28;20206;-82
2022/04/18 02:52:22;;;;;;;25.00;20.03;;;8.70;90.30;;;;;;4948218;29;20202;-82
2022/04/18 02:54:54;;;;;;;26.13;21.53;;;8.70;89.40;;;;;;4956844;28;20564;-82
2022/04/18 02:57:21;;;;;;;23.80;19.97;;;8.70;87.50;;;;;;4955233;28;20225;-82
2022/04/18 02:59:49;;;;;;;24.27;19.40;;;8.50;88.70;;;;;;4955260;28;20207;-82
2022/04/18 03:02:17;;;;;;;21.73;19.13;;;8.60;89.50;;;;;;4945842;29;20206;-82
2022/04/18 03:04:46;;;;;;;22.57;19.03;;;8.40;91.30;;;;;;4949691;28;20229;-82
2022/04/18 03:07:14;;;;;;;22.13;18.80;;;8.30;92.10;;;;;;4946553;29;20201;-81
2022/04/18 03:09:41;;;;;;;23.00;19.40;;;8.30;92.10;;;;;;4955858;28;20198;-82
2022/04/18 03:12:12;;;;;;;21.20;18.83;;;8.30;92.90;;;;;;4959105;28;20221;-83
2022/04/18 03:14:40;;;;;;;21.50;18.20;;;8.20;92.90;;;;;;4956006;28;20206;-82
2022/04/18 03:17:09;;;;;;;22.97;19.07;;;8.10;93.00;;;;;;4944306;29;20222;-81
2022/04/18 03:19:38;;;;;;;21.27;17.97;;;8.10;93.40;;;;;;4947273;28;20198;-82
2022/04/18 03:22:08;;;;;;;21.40;17.17;;;8.10;93.60;;;;;;4959485;28;20210;-82
2022/04/18 03:24:38;;;;;;;17.00;15.23;;;8.30;93.10;;;;;;4937999;29;20313;-83
2022/04/18 03:27:25;;;;;;;17.33;14.63;;;8.10;92.50;;;;;;4958369;28;20206;-82
2022/04/18 03:29:53;;;;;;;16.47;14.63;;;8.10;92.90;;;;;;4961779;28;20202;-82
2022/04/18 03:32:29;;;;;;;17.10;13.43;;;8.10;92.90;;;;;;4962305;28;20213;-82
2022/04/18 03:34:56;;;;;;;14.10;12.00;;;7.90;93.30;;;;;;4961893;28;20198;-82
2022/04/18 03:40:12;;;;;;;10.00;9.00;;;7.90;92.30;;;;;;4960966;28;20194;-82
2022/04/18 03:42:42;;;;;;;10.80;9.70;;;8.00;91.60;;;;;;4942250;29;20234;-82
2022/04/18 03:45:14;;;;;;;14.27;12.00;;;8.00;91.70;;;;;;4945561;29;20225;-82
2022/04/18 03:47:41;;;;;;;12.03;10.80;;;7.80;93.20;;;;;;4944670;29;20202;-80
2022/04/18 03:50:09;;;;;;;11.37;10.17;;;7.80;94.00;;;;;;4958338;28;20214;-80
2022/04/18 03:52:43;;;;;;;11.30;10.07;;;7.80;94.20;;;;;;4962058;28;20715;-81
2022/04/18 03:55:34;;;;;;;11.30;10.17;;;7.80;94.80;;;;;;4945549;28;20194;-81
2022/04/18 03:58:10;;;;;;;10.93;9.27;;;7.90;94.50;;;;;;4960292;28;20226;-80
2022/04/18 04:00:39;;;;;;;10.67;9.30;;;7.90;93.70;;;;;;4962462;28;20197;-81
2022/04/18 04:03:07;;;;;;;10.60;9.07;;;7.90;94.30;;;;;;4957554;28;20230;-80
2022/04/18 04:05:42;;;;;;;11.90;9.93;;;7.80;94.80;;;;;;4947108;29;20198;-81
2022/04/18 04:08:10;;;;;;;10.73;9.47;;;7.70;95.50;;;;;;4945440;29;20206;-81
2022/04/18 04:10:38;;;;;;;10.57;8.63;;;7.60;95.40;;;;;;4964644;28;20213;-81
2022/04/18 04:13:07;;;;;;;8.87;7.10;;;7.70;94.90;;;;;;4962196;28;20230;-80
2022/04/18 04:15:42;;;;;;;7.30;6.60;;;7.60;94.30;;;;;;4953509;29;20199;-81
2022/04/18 04:18:21;;;;;;;9.73;7.00;;;7.50;93.80;;;;;;4960036;28;20222;-81
2022/04/18 04:20:49;;;;;;;7.80;7.00;;;7.50;93.20;;;;;;4956139;29;20203;-81
2022/04/18 04:23:19;;;;;;;8.97;7.03;;;7.50;93.10;;;;;;4971698;28;20247;-80
2022/04/18 04:26:19;;;;;;;7.20;6.50;;;7.40;93.60;;;;;;4956238;28;20214;-81
2022/04/18 04:28:50;;;;;;;8.13;6.87;;;7.40;93.80;;;;;;4957369;28;20210;-81
2022/04/18 04:31:27;;;;;;;9.53;7.03;;;7.30;94.70;;;;;;4945144;29;20205;-79
2022/04/18 04:33:55;;;;;;;8.63;7.00;;;7.40;94.60;;;;;;4951755;28;20222;-79
2022/04/18 04:36:24;;;;;;;7.57;6.80;;;7.30;94.60;;;;;;4940160;29;20202;-79
2022/04/18 04:38:52;;;;;;;7.60;6.80;;;7.30;94.00;;;;;;4941806;29;20672;-79
2022/04/18 04:41:25;;;;;;;8.73;6.90;;;7.60;92.80;;;;;;4955371;28;20570;-79
2022/04/18 04:43:57;;;;;;;8.60;6.77;;;7.80;92.70;;;;;;4951364;28;20229;-79
2022/04/18 04:46:38;;;;;;;7.10;6.43;;;7.70;93.10;;;;;;4940499;29;20202;-79
2022/04/18 04:49:15;;;;;;;6.90;6.20;;;7.40;93.80;;;;;;4952441;28;20202;-79
2022/04/18 04:51:53;;;;;;;7.43;6.60;;;7.50;94.50;;;;;;4949373;28;20203;-80
2022/04/18 04:54:22;;;;;;;6.87;6.13;;;9.00;94.10;;;;;;4952277;28;20233;-79
2022/04/18 04:56:50;;;;;;;8.87;7.73;;;10.10;90.80;;;;;;4948962;28;20215;-81
2022/04/18 04:59:20;;;;;;;9.13;8.23;;;10.30;85.00;;;;;;4947361;28;20211;-79
2022/04/18 05:01:49;;;;;;;8.50;7.60;;;8.70;89.30;;;;;;4950757;28;20198;-79
2022/04/18 05:04:31;;;;;;;14.77;10.77;;;7.90;92.40;;;;;;4932248;29;20724;-80
2022/04/18 05:07:09;;;;;;;13.83;10.80;;;7.50;93.80;;;;;;4931911;29;20668;-79
2022/04/18 05:09:54;;;;;;;14.87;11.17;;;7.40;94.70;;;;;;4936804;29;20206;-79
2022/04/18 05:12:25;;;;;;;15.53;13.03;;;7.40;95.40;;;;;;4938271;29;20202;-79
2022/04/18 05:14:53;;;;;;;23.23;16.90;;;7.50;95.70;;;;;;4952043;28;20210;-79
2022/04/18 05:17:33;;;;;;;18.97;13.83;;;7.50;95.20;;;;;;4954658;28;20222;-79
2022/04/18 05:20:09;;;;;;;20.57;16.13;;;7.50;96.40;;;;;;4966617;28;20204;-79
2022/04/18 05:22:39;;;;;;;22.13;17.83;;;7.70;95.60;;;;;;4971692;28;20229;-79
2022/04/18 05:25:20;;;;;;;25.13;20.10;;;7.60;96.00;;;;;;4956031;28;20277;-79
2022/04/18 05:27:56;;;;;;;30.40;21.67;;;7.60;95.20;;;;;;4953696;28;20194;-80
2022/04/18 05:30:36;;;;;;;28.60;21.13;;;7.70;95.00;;;;;;4955334;28;20210;-79
2022/04/18 05:33:05;;;;;;;29.37;21.17;;;8.10;93.90;;;;;;4954825;29;20242;-79
2022/04/18 05:35:39;;;;;;;27.83;21.20;;;8.40;93.10;;;;;;4960043;28;20206;-78
2022/04/18 05:38:07;;;;;;;26.93;19.67;;;8.30;92.90;;;;;;4935945;28;20225;-79
2022/04/18 05:40:50;;;;;;;28.37;21.57;;;8.20;94.00;;;;;;4969936;28;20201;-80
2022/04/18 05:43:20;;;;;;;28.23;20.33;;;8.10;95.10;;;;;;4965625;28;20244;-80
2022/04/18 05:45:50;;;;;;;26.77;21.97;;;8.10;96.00;;;;;;4956597;28;20212;-81
2022/04/18 05:48:21;;;;;;;31.47;24.13;;;8.20;95.80;;;;;;4964989;28;20202;-79
2022/04/18 05:50:52;;;;;;;37.20;27.43;;;8.30;94.80;;;;;;4938379;29;20202;-80
2022/04/18 05:53:26;;;;;;;42.73;28.63;;;8.70;93.50;;;;;;4950503;28;20236;-81
2022/04/18 05:56:06;;;;;;;39.40;28.37;;;8.80;92.10;;;;;;4939310;29;20217;-80
2022/04/18 05:58:44;;;;;;;42.70;29.43;;;8.90;91.90;;;;;;4934351;29;20229;-80
2022/04/18 06:01:35;;;;;;;43.57;28.77;;;8.80;92.20;;;;;;4946529;28;20202;-80
2022/04/18 06:04:11;;;;;;;44.17;30.23;;;8.90;92.40;;;;;;4956331;28;20222;-80
2022/04/18 06:06:40;;;;;;;42.13;30.60;;;9.00;92.10;;;;;;4943116;29;20202;-80
2022/04/18 06:09:09;;;;;;;46.00;31.50;;;9.10;91.80;;;;;;4953510;28;20203;-79
2022/04/18 06:11:36;;;;;;;46.47;32.90;;;9.10;91.80;;;;;;4954181;28;20198;-80
2022/04/18 06:14:11;;;;;;;39.57;30.70;;;9.10;91.80;;;;;;4952287;28;20222;-79
2022/04/18 06:16:43;;;;;;;45.33;33.50;;;9.10;91.90;;;;;;4955186;28;20687;-79
2022/04/18 06:19:13;;;;;;;43.73;31.23;;;9.20;92.10;;;;;;4956136;28;20221;-79
2022/04/18 06:21:41;;;;;;;44.37;30.67;;;9.50;91.90;;;;;;4936811;29;20198;-80
2022/04/18 06:24:10;;;;;;;47.40;31.97;;;9.40;91.80;;;;;;4933876;29;20573;-78
2022/04/18 06:26:42;;;;;;;46.03;32.77;;;9.40;91.80;;;;;;4952545;28;20214;-79
2022/04/18 06:29:10;;;;;;;49.70;33.27;;;9.70;91.40;;;;;;4955889;28;20581;-79
2022/04/18 06:31:43;;;;;;;45.80;33.23;;;10.00;90.30;;;;;;4958843;28;20210;-79
2022/04/18 06:34:13;;;;;;;45.30;33.43;;;9.90;90.50;;;;;;4949036;29;20225;-79
2022/04/18 06:36:42;;;;;;;49.60;32.47;;;9.90;90.70;;;;;;4977925;28;20194;-79
2022/04/18 06:39:26;;;;;;;48.97;32.50;;;10.10;90.10;;;;;;4968077;28;20221;-79
2022/04/18 06:42:08;;;;;;;47.73;32.73;;;10.20;89.40;;;;;;4955919;28;20217;-79
2022/04/18 06:44:44;;;;;;;49.97;33.43;;;10.40;89.70;;;;;;4954148;28;20197;-79
2022/04/18 06:47:12;;;;;;;47.10;33.87;;;10.60;89.00;;;;;;4978377;28;20193;-79
2022/04/18 06:50:06;;;;;;;44.93;31.83;;;10.70;88.90;;;;;;4963623;28;20212;-79
2022/04/18 06:52:54;;;;;;;43.40;30.93;;;11.00;87.30;;;;;;4947682;29;20229;-79
2022/04/18 06:58:37;;;;;;;38.77;27.73;;;11.40;83.40;;;;;;4970726;28;20218;-79
2022/04/18 07:01:06;;;;;;;39.13;28.67;;;11.60;80.80;;;;;;4959968;29;20201;-79
2022/04/18 07:03:33;;;;;;;35.53;27.57;;;11.60;80.00;;;;;;4961720;28;20222;-79
2022/04/18 07:06:05;;;;;;;37.53;26.30;;;11.50;80.10;;;;;;4979102;28;20205;-79
2022/04/18 07:08:33;;;;;;;30.15;23.63;;;11.70;79.50;;;;;;4968844;28;20213;-79
2022/04/18 07:11:18;;;;;;;30.67;22.10;;;11.70;78.70;;;;;;4964276;28;20576;-79
2022/04/18 07:13:45;;;;;;;26.67;20.58;;;11.80;78.00;;;;;;4967469;28;20226;-79
2022/04/18 07:16:13;;;;;;;27.38;20.13;;;11.90;76.20;;;;;;4971531;28;20221;-79
2022/04/18 07:18:40;;;;;;;21.63;15.75;;;12.00;74.50;;;;;;4965225;29;20233;-79
2022/04/18 07:21:14;;;;;;;18.70;14.05;;;12.30;71.50;;;;;;4981533;28;20201;-79
2022/04/18 07:23:42;;;;;;;17.25;13.43;;;12.40;69.00;;;;;;4972797;28;20726;-79
2022/04/18 07:26:11;;;;;;;19.63;14.90;;;12.30;68.50;;;;;;4978325;28;20210;-79
2022/04/18 07:28:39;;;;;;;18.73;15.10;;;12.50;69.60;;;;;;4968535;28;20337;-79
2022/04/18 07:31:10;;;;;;;20.15;15.13;;;12.60;69.00;;;;;;4973121;28;20198;-79
2022/04/18 07:33:37;;;;;;;21.88;15.98;;;12.50;67.20;;;;;;4968477;28;20233;-79
2022/04/18 07:36:12;;;;;;;18.90;14.93;;;12.50;66.70;;;;;;4983997;28;20197;-79
2022/04/18 07:38:49;;;;;;;18.55;13.20;;;12.60;66.30;;;;;;4966518;28;20221;-79
2022/04/18 07:41:19;;;;;;;13.75;10.80;;;12.70;65.40;;;;;;4947855;29;20218;-79
2022/04/18 07:43:47;;;;;;;10.77;8.95;;;12.80;63.60;;;;;;4956164;29;20226;-79
2022/04/18 07:46:16;;;;;;;12.45;9.68;;;12.90;62.30;;;;;;4962310;29;20564;-79
2022/04/18 07:48:45;;;;;;;13.95;10.70;;;12.90;62.20;;;;;;4981230;28;20668;-79
2022/04/18 07:54:01;;;;;;;13.40;11.00;;;12.90;64.30;;;;;;4970580;28;20217;-79
2022/04/18 07:56:30;;;;;;;14.70;10.65;;;13.00;63.10;;;;;;4980884;28;20208;-79
2022/04/18 07:58:57;;;;;;;13.80;10.25;;;13.10;63.70;;;;;;4963869;28;20230;-79
2022/04/18 08:01:32;;;;;;;11.23;9.55;;;13.10;61.90;;;;;;4947071;29;20198;-79
2022/04/18 08:04:01;;;;;;;12.52;9.88;;;13.20;61.70;;;;;;4966930;28;20714;-79
2022/04/18 08:06:32;;;;;;;12.57;9.63;;;13.30;60.90;;;;;;4974578;28;20565;-79
2022/04/18 08:09:17;;;;;;;12.98;9.93;;;13.30;61.40;;;;;;4948526;29;20217;-79
2022/04/18 08:11:44;;;;;;;11.07;8.55;;;13.30;62.30;;;;;;4964987;29;20204;-79
2022/04/18 08:14:16;;;;;;;10.68;8.75;;;13.40;61.70;;;;;;4972918;28;20218;-79
2022/04/18 08:17:15;;;;;;;12.02;8.68;;;13.50;61.80;;;;;;4949578;28;20210;-79
2022/04/18 08:19:48;;;;;;;10.45;8.82;;;13.60;61.50;;;;;;4964925;28;20226;-79
2022/04/18 08:22:19;;;;;;;8.35;7.55;;;13.70;61.70;;;;;;4948259;29;20213;-79
2022/04/18 08:25:26;;;;;;;10.10;8.05;;;14.00;60.40;;;;;;4945388;29;20194;-79
2022/04/18 08:28:14;;;;;;;8.65;7.45;;;13.80;60.60;;;;;;4958671;28;20543;-79
2022/04/18 08:30:46;;;;;;;10.60;7.90;;;13.90;62.40;;;;;;4960969;28;20210;-78
2022/04/18 08:33:37;;;;;;;10.18;8.50;;;14.50;66.50;;;;;;4970765;28;20238;-78
2022/04/18 08:36:05;;;;;;;12.02;7.65;;;14.60;63.20;;;;;;4976604;28;20193;-78
2022/04/18 08:38:33;;;;;;;10.55;7.25;;;14.70;63.70;;;;;;4954790;28;20234;-78
2022/04/18 08:41:53;;;;;;;7.60;6.65;;;14.50;59.40;;;;;;4935270;29;20215;-78
2022/04/18 08:44:34;;;;;;;10.32;6.97;;;14.70;62.80;;;;;;4935633;29;20222;-79
2022/04/18 08:47:02;;;;;;;7.13;6.35;;;14.60;62.00;;;;;;4957923;28;20201;-79
2022/04/18 08:55:12;;;;;;;7.22;5.72;;;14.60;58.10;;;;;;4953048;28;20202;-78
2022/04/18 08:57:45;;;;;;;6.57;5.90;;;14.60;58.20;;;;;;4951069;29;20198;-78
2022/04/18 09:00:16;;;;;;;7.53;5.25;;;14.60;57.80;;;;;;4957824;28;20231;-79
2022/04/18 09:02:48;;;;;;;7.57;5.88;;;14.50;56.30;;;;;;4954911;29;20226;-78
2022/04/18 09:05:38;;;;;;;6.82;5.82;;;14.60;55.80;;;;;;4950324;29;20198;-78
2022/04/18 09:08:08;;;;;;;5.65;5.15;;;14.70;56.00;;;;;;4949849;28;20212;-78
2022/04/18 09:10:40;;;;;;;8.15;5.95;;;14.80;55.90;;;;;;4954314;28;20198;-78
2022/04/18 09:13:10;;;;;;;8.50;5.47;;;14.90;56.10;;;;;;4951645;28;20234;-78
2022/04/18 09:16:07;;;;;;;9.60;8.27;;;15.00;56.00;;;;;;4944561;28;20217;-79
2022/04/18 09:18:35;;;;;;;9.23;6.38;;;15.10;56.30;;;;;;4939025;29;20202;-78
2022/04/18 09:21:07;;;;;;;6.25;5.65;;;15.10;56.40;;;;;;4950271;29;20665;-78
2022/04/18 09:23:40;;;;;;;7.00;5.93;;;15.00;54.50;;;;;;4946564;29;20241;-78
2022/04/18 09:26:37;;;;;;;8.55;6.38;;;15.00;53.90;;;;;;4932796;28;20198;-78
2022/04/18 09:29:08;;;;;;;6.32;5.72;;;15.10;55.10;;;;;;4951280;28;20660;-79
2022/04/18 09:31:44;;;;;;;6.25;4.82;;;15.20;55.40;;;;;;4947604;28;20198;-79
2022/04/18 09:34:21;;;;;;;6.30;5.07;;;15.20;54.70;;;;;;4944505;28;20223;-77
2022/04/18 09:36:49;;;;;;;4.93;4.43;;;15.20;55.90;;;;;;4946911;28;20537;-76
2022/04/18 09:39:24;;;;;;;5.95;5.28;;;15.20;54.70;;;;;;4933821;28;20573;-78
2022/04/18 09:42:11;;;;;;;10.45;6.80;;;15.20;56.50;;;;;;4943151;28;20209;-78
2022/04/18 09:45:00;;;;;;;8.13;5.95;;;15.80;57.80;;;;;;4932940;29;20248;-77
2022/04/18 09:47:35;;;;;;;6.53;5.20;;;16.00;55.10;;;;;;4931809;29;20558;-78
2022/04/18 09:50:58;;;;;;;7.15;5.30;;;16.10;53.90;;;;;;4947542;29;20213;-77
2022/04/18 09:53:17;;;;;;;7.18;5.63;;;16.20;54.20;;;;;;4946274;28;20229;-77
2022/04/18 09:55:47;;;;;;;5.90;5.10;;;16.40;53.70;;;;;;4951616;28;20204;-77
2022/04/18 09:58:14;;;;;;;5.90;5.22;;;16.20;55.10;;;;;;4943443;28;20217;-78
2022/04/18 10:00:49;;;;;;;5.80;5.20;;;16.20;53.50;;;;;;4934368;29;20229;-77
2022/04/18 10:03:20;;;;;;;7.60;5.65;;;16.20;52.50;;;;;;4932731;29;20237;-78
2022/04/18 10:05:50;;;;;;;6.05;5.43;;;16.10;51.20;;;;;;4946353;28;20217;-77
2022/04/18 10:08:17;;;;;;;4.88;4.38;;;16.20;50.40;;;;;;4931099;29;20210;-77
2022/04/18 10:10:51;;;;;;;4.50;3.58;;;16.40;50.30;;;;;;4933781;29;20213;-77
2022/04/18 10:13:26;;;;;;;6.32;4.00;;;16.40;45.80;;;;;;4947381;28;20230;-77
2022/04/18 10:15:58;;;;;;;5.47;4.38;;;16.60;45.40;;;;;;4948138;28;20217;-77
2022/04/18 10:18:44;;;;;;;4.63;4.22;;;16.60;46.60;;;;;;4941749;28;20209;-77
2022/04/18 10:21:37;;;;;;;5.10;4.60;;;16.70;46.80;;;;;;4938773;29;20233;-79
2022/04/18 10:24:37;;;;;;;4.70;4.05;;;16.70;43.00;;;;;;4927550;29;20237;-77
2022/04/18 10:27:37;;;;;;;4.90;3.88;;;16.90;44.50;;;;;;4930727;29;20213;-79
2022/04/18 10:30:07;;;;;;;4.18;3.78;;;17.00;43.80;;;;;;4941568;28;20191;-77
2022/04/18 10:32:39;;;;;;;5.47;3.95;;;17.20;42.70;;;;;;4950321;28;20206;-79
2022/04/18 10:35:08;;;;;;;6.47;4.13;;;17.40;44.40;;;;;;4951474;28;20209;-78
2022/04/18 10:37:41;;;;;;;5.07;4.00;;;17.10;41.90;;;;;;4946879;28;20202;-78
2022/04/18 10:40:09;;;;;;;7.13;4.32;;;17.30;44.40;;;;;;4947725;28;20219;-78
2022/04/18 10:42:38;;;;;;;4.28;3.88;;;17.40;44.70;;;;;;4949287;28;20207;-78
2022/04/18 10:45:10;;;;;;;4.63;3.85;;;17.40;42.60;;;;;;4936485;29;20206;-78
2022/04/18 10:48:17;;;;;;;4.13;3.70;;;17.30;42.20;;;;;;4936451;29;20214;-78
2022/04/18 10:50:47;;;;;;;5.22;3.35;;;17.10;41.30;;;;;;4934537;29;20217;-79
2022/04/18 10:53:20;;;;;;;3.55;3.25;;;17.30;42.20;;;;;;4947036;28;20218;-77
2022/04/18 10:56:12;;;;;;;6.03;3.47;;;17.50;44.10;;;;;;4933706;29;20217;-77
2022/04/18 10:58:44;;;;;;;4.93;3.90;;;17.60;41.60;;;;;;4951329;28;20202;-78
2022/04/18 11:01:12;;;;;;;5.43;4.18;;;17.70;40.40;;;;;;4944501;28;20218;-79
2022/04/18 11:03:50;;;;;;;3.40;3.10;;;17.60;39.30;;;;;;4931160;29;20229;-79
2022/04/18 11:06:52;;;;;;;4.93;3.30;;;17.70;42.70;;;;;;4944638;28;20198;-78
2022/04/18 11:09:27;;;;;;;4.30;3.83;;;17.80;41.70;;;;;;4932496;29;20209;-78
2022/04/18 11:12:01;;;;;;;5.22;3.50;;;17.70;40.40;;;;;;4952651;28;20221;-78
2022/04/18 11:14:30;;;;;;;5.25;3.35;;;17.70;41.50;;;;;;4930804;29;20214;-79
2022/04/18 11:17:00;;;;;;;5.13;3.67;;;17.70;40.50;;;;;;4947496;28;20206;-79
2022/04/18 11:19:29;;;;;;;3.72;3.35;;;17.70;40.80;;;;;;4997265;23;20232;-80
2022/04/18 11:22:20;;;;;;;4.10;3.70;;;18.10;42.20;;;;;;4985101;28;20197;-79
2022/04/18 11:24:59;;;;;;;4.50;4.10;;;18.30;41.10;;;;;;4969451;28;20208;-79
2022/04/18 11:27:38;;;;;;;4.20;3.83;;;18.20;39.60;;;;;;4975897;28;20566;-80
2022/04/18 11:30:11;;;;;;;4.30;3.70;;;18.20;39.80;;;;;;4979730;28;20229;-79
2022/04/18 11:32:40;;;;;;;3.70;3.20;;;18.20;39.90;;;;;;4978217;28;20590;-79
2022/04/18 11:35:10;;;;;;;3.50;3.05;;;18.50;39.30;;;;;;4961288;28;20213;-78
2022/04/18 11:37:40;;;;;;;5.15;3.67;;;18.50;38.90;;;;;;4965929;28;20205;-79
2022/04/18 11:40:11;;;;;;;3.17;2.88;;;18.50;37.60;;;;;;4965748;28;20225;-79
2022/04/18 11:42:40;;;;;;;4.05;3.53;;;18.50;38.00;;;;;;4967131;28;20209;-80
2022/04/18 11:45:10;;;;;;;4.05;3.47;;;18.50;39.40;;;;;;4986160;28;20205;-79
2022/04/18 11:47:47;;;;;;;3.38;3.08;;;18.60;37.60;;;;;;4966589;28;20202;-79
2022/04/18 11:50:21;;;;;;;3.65;3.13;;;18.80;36.70;;;;;;4976224;28;20671;-78
2022/04/18 11:52:50;;;;;;;4.47;3.90;;;18.90;38.50;;;;;;4984269;28;20207;-79
2022/04/18 11:55:19;;;;;;;3.58;3.25;;;19.00;36.90;;;;;;4958146;28;20217;-78
2022/04/18 11:57:48;;;;;;;3.40;3.10;;;19.20;36.30;;;;;;4986401;28;20201;-76
2022/04/18 12:06:44;;;;;;;4.15;3.20;;;19.40;36.70;;;;;;4987171;28;20232;-76
2022/04/18 12:08:44;;;;;;;3.70;3.10;;;19.40;37.40;;;;;;4954645;28;20600;-76
2022/04/18 12:11:13;;;;;;;3.30;3.00;;;19.30;37.90;;;;;;4965639;28;20200;-75
2022/04/18 12:13:42;;;;;;;5.10;3.50;;;19.40;38.90;;;;;;4965826;28;20219;-76
2022/04/18 12:16:10;;;;;;;3.60;3.30;;;19.50;37.60;;;;;;4963946;28;20216;-76
2022/04/18 12:18:37;;;;;;;3.58;3.13;;;19.40;37.60;;;;;;4873598;28;2783099;-76
2022/04/18 12:21:05;;;;;;;3.90;3.22;;;19.60;37.30;;;;;;4966036;28;20625;-75
2022/04/18 12:23:32;;;;;;;3.42;3.13;;;19.60;37.10;;;;;;4961290;28;20205;-76
2022/04/18 12:26:01;;;;;;;3.00;2.80;;;19.80;36.50;;;;;;4966980;28;20345;-76
2022/04/18 12:28:31;;;;;;;3.00;2.78;;;20.10;34.60;;;;;;4966003;28;20219;-75
2022/04/18 12:30:59;;;;;;;3.70;2.65;;;20.10;35.60;;;;;;4965072;28;20198;-76
2022/04/18 12:33:28;;;;;;;3.28;2.97;;;20.30;35.60;;;;;;4983968;28;20216;-76
2022/04/18 12:35:56;;;;;;;4.85;3.20;;;20.00;38.30;;;;;;4968526;28;20209;-76
2022/04/18 12:38:31;;;;;;;3.92;2.83;;;20.20;36.10;;;;;;4972152;28;20209;-76
2022/04/18 12:41:00;;;;;;;3.33;3.13;;;20.50;35.70;;;;;;4971464;28;20209;-76
2022/04/18 12:43:30;;;;;;;4.97;3.33;;;20.50;34.60;;;;;;4961393;28;20209;-76
2022/04/18 12:45:59;;;;;;;2.97;2.42;;;20.10;34.40;;;;;;4966217;28;20201;-76
2022/04/18 12:48:28;;;;;;;2.60;2.40;;;20.20;35.10;;;;;;4989160;28;20230;-76
2022/04/18 12:50:57;;;;;;;4.03;2.60;;;20.30;34.90;;;;;;4971549;28;20202;-76
2022/04/18 12:53:46;;;;;;;2.95;2.47;;;20.60;37.20;;;;;;4969919;28;20228;-76
2022/04/18 12:56:20;;;;;;;3.13;2.40;;;21.10;33.40;;;;;;4963887;28;20200;-76
2022/04/18 12:58:49;;;;;;;2.63;2.25;;;21.10;33.80;;;;;;4967965;28;20221;-76
2022/04/18 13:01:22;;;;;;;2.65;2.45;;;20.50;35.20;;;;;;4967845;28;20221;-76
2022/04/18 13:03:51;;;;;;;2.40;2.20;;;20.70;36.40;;;;;;4971181;28;20216;-76
2022/04/18 13:06:23;;;;;;;2.50;2.20;;;20.90;34.00;;;;;;4968177;28;20566;-76
2022/04/18 13:08:50;;;;;;;2.88;2.50;;;20.80;34.30;;;;;;4961930;28;20229;-75
2022/04/18 13:11:18;;;;;;;2.47;2.20;;;21.40;33.00;;;;;;4984895;28;20202;-76
2022/04/18 13:13:46;;;;;;;2.50;2.30;;;21.10;33.40;;;;;;4964001;28;20204;-75
2022/04/18 13:16:25;;;;;;;4.10;2.08;;;21.30;32.20;;;;;;4969914;28;20216;-76
2022/04/18 13:19:00;;;;;;;2.75;2.33;;;21.00;33.10;;;;;;4964488;28;20228;-76
2022/04/18 13:21:38;;;;;;;2.70;2.17;;;21.50;30.90;;;;;;4969970;28;20205;-76
2022/04/18 13:24:07;;;;;;;3.45;2.13;;;21.90;30.10;;;;;;4972992;28;20215;-77
2022/04/18 13:26:36;;;;;;;1.55;1.45;;;21.90;34.00;;;;;;4983349;28;20575;-76
2022/04/18 13:29:06;;;;;;;1.92;1.55;;;21.50;33.90;;;;;;4961685;28;20232;-77
2022/04/18 13:31:35;;;;;;;1.85;1.50;;;21.30;33.80;;;;;;4979370;28;20205;-77
2022/04/18 13:34:03;;;;;;;1.77;1.45;;;21.10;30.00;;;;;;4963985;28;20559;-77
2022/04/18 13:36:37;;;;;;;2.63;1.65;;;21.10;30.50;;;;;;4979882;28;20198;-77
2022/04/18 13:39:07;;;;;;;2.10;1.70;;;21.30;31.30;;;;;;4966317;28;20231;-76